Aérodrome :
LOGIN :

S'inscrire | Disclaimer

   EN    FR    IT 

 










Légende :    VFR   VFR Marginal   IFR   IFR Intensif   IFR Très Intensif
Visi : 
Plafond : 
>= 8 km
>= 3000ft
5 à 8 km
1000 à 3000 ft
1500m à 5 km
500 à 1000 ft
800 à 1500m
200 à 500 ft
< 800m
< 200 ft
Symboles :   Orages  Brouillard  Fortes neiges  Fortes précipitations  Vent > 20 kt
SIGMETs :   Divers  Orages  Givrage  Turbulence  Onde Orograph.  Cendres Volcan.







- Altitude de l'aérodrome : 266 ft
- Code IATA : NCL
- Voir les cartes d'approche


EGNT - Newcastle

DERNIER METAR :
  • 221150Z 01011KT 9999 BKN010 11/08 Q1023

METARs EXPIRÉS :
  • 221120Z 01012KT 9999 BKN010 10/08 Q1023
  • 221050Z 02010KT 340V050 9999 BKN010 10/08 Q1022
  • 221020Z 02009KT 9999 BKN011 10/08 Q1022
  • 220950Z 01010KT 340V050 9999 BKN009 10/08 Q1022
  • 220920Z 01012KT 9999 BKN007 10/08 Q1023

TAF TAF EGNT
Valide du 22 à 12h jusqu'au 23 à 12h UTC


221057Z 2212/2312 01012KT 9999 SCT015
PROB40
TEMPO 2212/2218 8000 BKN014
BECMG 2218/2221 6000 BKN005
PROB40
TEMPO 2221/2309 3000 BR BKN003
TEMPO 2310/2312 SCT008 BKN011
ATIS : +44 191 214 3400
Pas de NOTAMs connus pour ce terrain.



MET'MAP, la Météo Aéronautique d'un coup d'oeil ! - Copyright ORBIFLY Décembre 2007 - Disclaimer

ORBIFLY MET'MAP TEAM :

Programmation & Développement : Alexandra Zaïnal
Conception & Développement : Baudouin d'Aumeries
Co-Programmation & Développement : Marc-Olivier Méhu
Soutien technique & logistique : Manuel Goepfert

Contact : metmap@orbifly.com




SOURCES & CREDITS :

   NOAA